createdAt,value
2019-02-12T00:01:55.128Z,100858.52
2019-02-12T00:04:26.361Z,100857.19
2019-02-12T00:06:56.794Z,100855.41
2019-02-12T00:09:27.303Z,100855.77
2019-02-12T00:11:57.738Z,100856.35
2019-02-12T00:14:28.474Z,100854.25
2019-02-12T00:16:58.938Z,100854.93
2019-02-12T00:19:29.367Z,100863.06
2019-02-12T00:21:59.853Z,100871.09
2019-02-12T00:24:31.215Z,100866.19
2019-02-12T00:27:02.003Z,100868.80
2019-02-12T00:29:32.461Z,100866.16
2019-02-12T00:32:02.890Z,100872.80
2019-02-12T00:34:34.304Z,100870.55
2019-02-12T00:37:05.020Z,100862.12
2019-02-12T00:39:35.458Z,100857.03
2019-02-12T00:42:06.105Z,100863.73
2019-02-12T00:44:36.542Z,100862.87
2019-02-12T00:47:07.013Z,100866.48
2019-02-12T00:49:37.442Z,100871.09
2019-02-12T00:52:07.907Z,100861.93
2019-02-12T00:54:38.759Z,100876.58
2019-02-12T00:57:09.189Z,100873.19
2019-02-12T00:59:39.666Z,100876.96
2019-02-12T01:02:10.372Z,100876.02
2019-02-12T01:04:40.814Z,100871.58
2019-02-12T01:07:11.538Z,100870.99
2019-02-12T01:09:42.002Z,100874.13
2019-02-12T01:12:13.361Z,100885.09
2019-02-12T01:14:44.126Z,100876.28
2019-02-12T01:17:14.736Z,100883.09
2019-02-12T01:19:45.199Z,100875.31
2019-02-12T01:22:15.625Z,100886.27
2019-02-12T01:24:46.117Z,100886.95
2019-02-12T01:27:16.536Z,100883.92
2019-02-12T01:29:47.311Z,100884.51
2019-02-12T01:32:18.112Z,100886.95
2019-02-12T01:34:48.548Z,100888.83
2019-02-12T01:37:19.020Z,100888.92
2019-02-12T01:39:49.458Z,100887.84
2019-02-12T01:42:19.900Z,100894.59
2019-02-12T01:44:50.736Z,100895.14
2019-02-12T01:47:21.174Z,100893.77
2019-02-12T01:49:51.649Z,100899.30
2019-02-12T01:52:22.414Z,100897.87
2019-02-12T01:54:52.858Z,100894.95
2019-02-12T01:57:23.326Z,100888.63
2019-02-12T01:59:54.504Z,100887.30
2019-02-12T02:02:24.981Z,100892.14
2019-02-12T02:04:55.775Z,100893.56
2019-02-12T02:07:26.209Z,100899.50
2019-02-12T02:09:56.698Z,100899.89
2019-02-12T02:12:27.226Z,100905.73
2019-02-12T02:14:57.704Z,100910.22
2019-02-12T02:17:28.458Z,100912.28
2019-02-12T02:19:58.888Z,100904.80
2019-02-12T02:22:29.346Z,100893.38
2019-02-12T02:24:59.781Z,100892.89
2019-02-12T02:27:30.262Z,100893.56
2019-02-12T02:30:01.021Z,100901.98
2019-02-12T02:32:31.451Z,100913.20
2019-02-12T02:35:02.294Z,100911.60
2019-02-12T02:37:32.724Z,100912.47
2019-02-12T02:40:03.222Z,100913.95
2019-02-12T02:42:33.650Z,100916.98
2019-02-12T02:45:04.189Z,100916.24
2019-02-12T02:47:34.647Z,100901.89
2019-02-12T02:50:05.521Z,100919.92
2019-02-12T02:52:36.004Z,100917.56
2019-02-12T02:55:06.886Z,100929.76
2019-02-12T02:57:37.999Z,100930.80
2019-02-12T03:00:09.456Z,100937.50
2019-02-12T03:02:39.893Z,100935.70
2019-02-12T03:05:11.259Z,100935.34
2019-02-12T03:07:41.702Z,100939.76
2019-02-12T03:10:12.473Z,100943.73
2019-02-12T03:12:43.289Z,100942.89
2019-02-12T03:15:14.068Z,100948.38
2019-02-12T03:17:44.589Z,100931.09
2019-02-12T03:20:15.020Z,100931.91
2019-02-12T03:22:46.178Z,100946.36
2019-02-12T03:25:16.639Z,100949.66
2019-02-12T03:27:47.110Z,100951.55
2019-02-12T03:30:17.592Z,100951.55
2019-02-12T03:32:48.031Z,100952.58
2019-02-12T03:35:18.473Z,100944.27
2019-02-12T03:37:49.265Z,100947.55
2019-02-12T03:40:20.107Z,100949.35
2019-02-12T03:42:50.675Z,100955.57
2019-02-12T03:45:21.116Z,100955.80
2019-02-12T03:47:51.822Z,100961.22
2019-02-12T03:50:22.295Z,100966.75
2019-02-12T03:52:52.740Z,100970.11
2019-02-12T03:55:23.212Z,100971.38
2019-02-12T03:57:53.641Z,100982.75
2019-02-12T04:00:24.076Z,100986.39
2019-02-12T04:03:05.328Z,100979.98
2019-02-12T04:05:36.683Z,100983.45
2019-02-12T04:08:07.454Z,100982.52
2019-02-12T04:10:37.963Z,100984.79
2019-02-12T04:13:08.389Z,100993.23
2019-02-12T04:15:38.864Z,100993.84
2019-02-12T04:18:09.636Z,100985.87
2019-02-12T04:20:40.071Z,100984.38
2019-02-12T04:23:10.918Z,100987.80
2019-02-12T04:25:41.690Z,100997.14
2019-02-12T04:28:12.173Z,101000.33
2019-02-12T04:30:43.333Z,100991.80
2019-02-12T04:33:13.786Z,100987.80
2019-02-12T04:35:44.633Z,100985.31
2019-02-12T04:38:15.177Z,100992.43
2019-02-12T04:40:45.936Z,100997.51
2019-02-12T04:43:16.670Z,101000.54
2019-02-12T04:45:47.487Z,101002.64
2019-02-12T04:48:18.380Z,101011.44
2019-02-12T04:50:48.817Z,101023.13
2019-02-12T04:53:19.257Z,101021.05
2019-02-12T04:55:49.712Z,101022.52
2019-02-12T04:58:20.181Z,101025.11
2019-02-12T05:00:50.673Z,101032.25
2019-02-12T05:03:21.106Z,101026.34
2019-02-12T05:05:51.550Z,101031.62
2019-02-12T05:08:22.015Z,101029.70
2019-02-12T05:11:00.180Z,101034.18
2019-02-12T05:13:31.049Z,101029.52
2019-02-12T05:16:01.488Z,101031.47
2019-02-12T05:18:31.943Z,101031.86
2019-02-12T05:21:02.437Z,101023.72
2019-02-12T05:23:34.331Z,101030.63
2019-02-12T05:26:05.353Z,101033.15
2019-02-12T05:28:36.175Z,101033.06
2019-02-12T05:31:06.948Z,101032.34
2019-02-12T05:33:37.433Z,101024.11
2019-02-12T05:36:08.179Z,101027.51
2019-02-12T05:38:38.612Z,101033.36
2019-02-12T05:41:11.212Z,101034.20
2019-02-12T05:43:41.233Z,101036.63
2019-02-12T05:46:12.030Z,101033.81
2019-02-12T05:48:42.862Z,101027.59
2019-02-12T05:51:13.301Z,101034.92
2019-02-12T05:53:43.772Z,101042.22
2019-02-12T05:56:14.213Z,101039.97
2019-02-12T05:58:44.745Z,101034.08
2019-02-12T06:01:16.660Z,101032.44
2019-02-12T06:03:47.451Z,101041.73
2019-02-12T06:06:17.921Z,101047.20
2019-02-12T06:08:49.340Z,101052.19
2019-02-12T06:11:20.581Z,101057.86
2019-02-12T06:13:51.410Z,101056.27
2019-02-12T06:16:21.853Z,101067.41
2019-02-12T06:18:52.321Z,101064.79
2019-02-12T06:21:22.761Z,101066.09
2019-02-12T06:23:53.326Z,101072.27
2019-02-12T06:26:24.087Z,101069.32
2019-02-12T06:28:54.512Z,101062.06
2019-02-12T06:31:25.358Z,101068.52
2019-02-12T06:33:55.883Z,101072.31
2019-02-12T06:36:26.720Z,101075.65
2019-02-12T06:38:57.532Z,101090.19
2019-02-12T06:41:28.302Z,101097.89
2019-02-12T06:43:58.732Z,101095.08
2019-02-12T06:46:29.676Z,101093.67
2019-02-12T06:49:00.355Z,101105.56
2019-02-12T06:51:30.796Z,101099.73
2019-02-12T06:54:02.789Z,101110.63
2019-02-12T06:56:34.035Z,101114.05
2019-02-12T06:59:04.481Z,101121.27
2019-02-12T07:01:34.978Z,101121.28
2019-02-12T07:04:26.116Z,101117.02
2019-02-12T07:07:36.500Z,101117.53
2019-02-12T07:10:12.394Z,101123.09
2019-02-12T07:13:29.824Z,101124.06
2019-02-12T07:16:38.333Z,101131.23
2019-02-12T07:20:04.609Z,101129.44
2019-02-12T07:23:05.373Z,101132.47
2019-02-12T07:26:18.368Z,101138.14
2019-02-12T07:29:08.246Z,101134.10
2019-02-12T07:32:19.216Z,101139.30
2019-02-12T07:35:33.888Z,101146.03
2019-02-12T07:38:44.429Z,101144.79
2019-02-12T07:41:56.483Z,101153.56
2019-02-12T07:45:05.761Z,101150.30
2019-02-12T07:48:05.978Z,101148.87
2019-02-12T07:51:02.003Z,101161.70
2019-02-12T07:54:21.077Z,101168.34
2019-02-12T07:57:09.425Z,101167.59
2019-02-12T08:00:11.519Z,101177.28
2019-02-12T08:03:02.067Z,101178.43
2019-02-12T08:06:12.867Z,101180.93
2019-02-12T08:09:28.895Z,101189.77
2019-02-12T08:12:22.289Z,101194.17
2019-02-12T08:15:17.941Z,101198.59
2019-02-12T08:18:14.473Z,101219.71
2019-02-12T08:21:28.186Z,101225.31
2019-02-12T08:25:00.810Z,101228.80
2019-02-12T08:28:17.444Z,101240.47
2019-02-12T08:31:32.312Z,101248.21
2019-02-12T08:34:44.992Z,101253.29
2019-02-12T08:37:41.174Z,101254.65
2019-02-12T08:40:28.354Z,101248.73
2019-02-12T08:43:27.427Z,101242.81
2019-02-12T08:46:40.924Z,101241.91
2019-02-12T08:49:46.960Z,101241.61
2019-02-12T08:52:39.657Z,101248.56
2019-02-12T08:55:36.841Z,101242.02
2019-02-12T08:58:31.475Z,101245.81
2019-02-12T09:02:04.350Z,101248.55
2019-02-12T09:05:27.305Z,101251.72
2019-02-12T09:08:04.340Z,101260.02
2019-02-12T09:10:51.952Z,101258.64
2019-02-12T09:14:08.389Z,101266.01
2019-02-12T09:17:28.675Z,101269.02
2019-02-12T09:20:42.875Z,101271.63
2019-02-12T09:23:40.782Z,101272.33
2019-02-12T09:26:20.068Z,101268.66
2019-02-12T09:29:21.898Z,101272.98
2019-02-12T09:32:42.382Z,101272.38
2019-02-12T09:35:44.381Z,101283.45
2019-02-12T09:38:41.113Z,101285.17
2019-02-12T09:41:38.672Z,101284.48
2019-02-12T09:44:48.544Z,101283.55
2019-02-12T09:47:53.736Z,101290.47
2019-02-12T09:50:58.843Z,101298.59
2019-02-12T09:53:55.781Z,101295.00
2019-02-12T09:57:07.300Z,101301.83
2019-02-12T10:00:03.670Z,101299.59
2019-02-12T10:03:17.909Z,101304.61
2019-02-12T10:06:27.137Z,101310.73
2019-02-12T10:09:50.738Z,101304.57
2019-02-12T10:12:49.770Z,101307.66
2019-02-12T10:15:42.310Z,101309.97
2019-02-12T10:18:48.666Z,101310.08
2019-02-12T10:21:51.927Z,101312.44
2019-02-12T10:24:47.101Z,101311.55
2019-02-12T10:27:51.125Z,101325.63
2019-02-12T10:30:43.973Z,101325.44
2019-02-12T10:33:15.951Z,101336.73
2019-02-12T10:35:46.821Z,101334.02
2019-02-12T10:38:17.751Z,101336.49
2019-02-12T10:40:48.324Z,101329.73
2019-02-12T10:43:19.177Z,101333.84
2019-02-12T10:45:49.697Z,101335.27
2019-02-12T10:48:20.138Z,101341.27
2019-02-12T10:50:50.947Z,101335.77
2019-02-12T10:53:22.147Z,101330.16
2019-02-12T10:55:53.647Z,101327.91
2019-02-12T10:58:24.788Z,101327.91
2019-02-12T11:00:55.269Z,101334.63
2019-02-12T11:03:25.704Z,101335.02
2019-02-12T11:05:56.146Z,101328.41
2019-02-12T11:08:27.432Z,101336.83
2019-02-12T11:10:57.890Z,101338.11
2019-02-12T11:13:28.330Z,101334.59
2019-02-12T11:15:59.005Z,101328.45
2019-02-12T11:18:29.864Z,101331.95
2019-02-12T11:21:00.308Z,101339.72
2019-02-12T11:23:31.448Z,101340.58
2019-02-12T11:26:01.883Z,101353.17
2019-02-12T11:28:32.313Z,101352.13
2019-02-12T11:31:03.497Z,101348.64
2019-02-12T11:33:33.940Z,101342.77
2019-02-12T11:36:04.381Z,101345.03
2019-02-12T11:38:34.870Z,101342.93
2019-02-12T11:41:05.411Z,101346.81
2019-02-12T11:43:35.843Z,101349.48
2019-02-12T11:46:06.341Z,101342.94
2019-02-12T11:48:37.073Z,101341.13
2019-02-12T11:51:07.526Z,101345.20
2019-02-12T11:53:38.017Z,101349.67
2019-02-12T11:56:08.768Z,101344.73
2019-02-12T11:58:39.213Z,101339.54
2019-02-12T12:01:14.042Z,101342.37
2019-02-12T12:03:44.479Z,101347.57
2019-02-12T12:06:15.472Z,101352.80
2019-02-12T12:08:45.966Z,101353.84
2019-02-12T12:11:16.960Z,101351.36
2019-02-12T12:13:47.401Z,101354.55
2019-02-12T12:16:17.933Z,101352.69
2019-02-12T12:18:48.369Z,101354.63
2019-02-12T12:21:18.810Z,101363.37
2019-02-12T12:23:49.949Z,101363.89
2019-02-12T12:26:20.380Z,101354.14
2019-02-12T12:28:51.156Z,101359.36
2019-02-12T12:31:21.993Z,101349.09
2019-02-12T12:33:53.598Z,101348.99
2019-02-12T12:36:24.036Z,101349.60
2019-02-12T12:38:54.878Z,101355.81
2019-02-12T12:41:25.311Z,101355.73
2019-02-12T12:43:55.849Z,101348.32
2019-02-12T12:46:26.354Z,101352.76
2019-02-12T12:48:56.803Z,101347.51
2019-02-12T12:51:27.278Z,101348.61
2019-02-12T12:53:57.741Z,101345.50
2019-02-12T12:56:28.507Z,101350.88
2019-02-12T12:58:58.940Z,101352.63
2019-02-12T13:01:29.441Z,101349.44
2019-02-12T13:04:00.436Z,101358.02
2019-02-12T13:06:30.876Z,101354.24
2019-02-12T13:09:01.365Z,101350.19
2019-02-12T13:11:32.194Z,101352.64
2019-02-12T13:14:02.702Z,101360.91
2019-02-12T13:16:33.574Z,101361.39
2019-02-12T13:19:04.412Z,101358.03
2019-02-12T13:21:34.855Z,101360.69
2019-02-12T13:24:05.347Z,101354.33
2019-02-12T13:26:37.335Z,101366.77
2019-02-12T13:29:08.079Z,101369.04
2019-02-12T13:31:39.464Z,101367.33
2019-02-12T13:34:09.908Z,101369.88
2019-02-12T13:36:40.355Z,101374.80
2019-02-12T13:39:11.225Z,101372.00
2019-02-12T13:41:42.367Z,101371.67
2019-02-12T13:44:12.807Z,101376.21
2019-02-12T13:46:43.692Z,101381.58
2019-02-12T13:49:14.509Z,101379.65
2019-02-12T13:51:44.948Z,101381.24
2019-02-12T13:54:15.543Z,101385.06
2019-02-12T13:56:45.979Z,101386.63
2019-02-12T13:59:17.021Z,101394.61
2019-02-12T14:01:47.852Z,101396.70
2019-02-12T14:04:18.394Z,101405.48
2019-02-12T14:06:49.125Z,101404.65
2019-02-12T14:09:19.611Z,101404.75
2019-02-12T14:11:50.522Z,101407.87
2019-02-12T14:14:20.958Z,101409.30
2019-02-12T14:16:51.453Z,101418.05
2019-02-12T14:19:21.891Z,101415.79
2019-02-12T14:21:52.729Z,101417.04
2019-02-12T14:24:23.223Z,101420.15
2019-02-12T14:26:53.673Z,101427.84
2019-02-12T14:29:24.122Z,101421.66
2019-02-12T14:31:54.974Z,101420.16
2019-02-12T14:34:25.410Z,101415.78
2019-02-12T14:36:56.230Z,101426.22
2019-02-12T14:39:27.057Z,101425.84
2019-02-12T14:41:57.501Z,101428.13
2019-02-12T14:44:28.338Z,101422.53
2019-02-12T14:46:59.161Z,101421.28
2019-02-12T14:49:29.592Z,101425.20
2019-02-12T14:52:00.036Z,101426.88
2019-02-12T14:54:30.517Z,101417.98
2019-02-12T14:57:00.952Z,101422.25
2019-02-12T14:59:31.440Z,101425.08
2019-02-12T15:02:01.879Z,101423.22
2019-02-12T15:04:33.307Z,101420.73
2019-02-12T15:07:03.809Z,101421.38
2019-02-12T15:09:34.258Z,101421.59
2019-02-12T15:12:04.700Z,101418.25
2019-02-12T15:14:35.201Z,101419.23
2019-02-12T15:17:05.969Z,101417.49
2019-02-12T15:19:36.405Z,101423.58
2019-02-12T15:22:07.092Z,101427.09
2019-02-12T15:24:37.527Z,101427.38
2019-02-12T15:27:07.957Z,101425.56
2019-02-12T15:29:38.544Z,101429.09
2019-02-12T15:32:08.983Z,101430.42
2019-02-12T15:34:39.422Z,101423.66
2019-02-12T15:37:09.903Z,101421.39
2019-02-12T15:39:40.353Z,101426.80
2019-02-12T15:42:10.794Z,101428.69
2019-02-12T15:44:41.825Z,101423.29
2019-02-12T15:47:12.968Z,101429.34
2019-02-12T15:49:43.445Z,101430.39
2019-02-12T15:52:15.537Z,101429.31
2019-02-12T15:54:46.543Z,101434.82
2019-02-12T15:57:17.000Z,101424.91
2019-02-12T15:59:47.507Z,101425.95
2019-02-12T16:02:18.725Z,101427.47
2019-02-12T16:04:50.212Z,101443.11
2019-02-12T16:07:22.441Z,101443.66
2019-02-12T16:09:55.018Z,101446.50
2019-02-12T16:12:28.517Z,101450.87
2019-02-12T16:15:00.876Z,101454.56
2019-02-12T16:17:31.525Z,101453.23
2019-02-12T16:20:02.358Z,101448.46
2019-02-12T16:22:32.836Z,101448.41
2019-02-12T16:27:29.599Z,101448.62
2019-02-12T16:30:01.151Z,101454.55
2019-02-12T16:32:31.771Z,101450.77
2019-02-12T16:35:04.277Z,101449.25
2019-02-12T16:37:35.066Z,101453.81
2019-02-12T16:40:06.622Z,101453.72
2019-02-12T16:42:37.878Z,101450.98
2019-02-12T16:45:11.677Z,101461.88
2019-02-12T16:47:42.932Z,101462.42
2019-02-12T16:50:13.882Z,101465.98
2019-02-12T16:52:44.653Z,101477.95
2019-02-12T16:55:15.259Z,101478.19
2019-02-12T16:57:46.068Z,101476.32
2019-02-12T17:00:17.213Z,101485.55
2019-02-12T17:02:47.704Z,101485.88
2019-02-12T17:05:19.033Z,101485.61
2019-02-12T17:07:49.483Z,101483.18
2019-02-12T17:10:20.270Z,101489.15
2019-02-12T17:12:51.966Z,101484.48
2019-02-12T17:15:22.399Z,101486.92
2019-02-12T17:17:53.826Z,101491.75
2019-02-12T17:20:24.285Z,101489.52
2019-02-12T17:22:54.733Z,101493.86
2019-02-12T17:25:25.724Z,101506.09
2019-02-12T17:27:56.188Z,101501.63
2019-02-12T17:30:26.648Z,101506.50
2019-02-12T17:32:57.151Z,101505.72
2019-02-12T17:35:28.369Z,101510.41
2019-02-12T17:37:58.810Z,101508.42
2019-02-12T17:40:30.034Z,101508.75
2019-02-12T17:43:00.486Z,101503.53
2019-02-12T17:45:30.925Z,101510.97
2019-02-12T17:48:01.748Z,101504.39
2019-02-12T17:50:32.994Z,101507.12
2019-02-12T17:53:04.245Z,101510.91
2019-02-12T17:55:34.753Z,101507.20
2019-02-12T17:58:05.353Z,101515.86
2019-02-12T18:00:39.723Z,101518.20
2019-02-12T18:03:10.229Z,101514.94
2019-02-12T18:05:42.256Z,101505.98
2019-02-12T18:08:13.838Z,101500.29
2019-02-12T18:10:44.334Z,101504.35
2019-02-12T18:13:16.147Z,101510.84
2019-02-12T18:15:49.737Z,101513.41
2019-02-12T18:18:21.056Z,101512.09
2019-02-12T18:20:51.519Z,101503.08
2019-02-12T18:23:22.379Z,101512.48
2019-02-12T18:25:53.244Z,101515.84
2019-02-12T18:28:23.725Z,101519.50
2019-02-12T18:30:54.615Z,101523.25
2019-02-12T18:33:25.060Z,101522.72
2019-02-12T18:35:57.221Z,101520.52
2019-02-12T18:38:27.726Z,101521.31
2019-02-12T18:40:58.179Z,101518.49
2019-02-12T18:43:30.603Z,101519.45
2019-02-12T18:46:01.386Z,101518.97
2019-02-12T18:48:32.829Z,101518.27
2019-02-12T18:51:04.695Z,101517.95
2019-02-12T18:53:35.619Z,101513.81
2019-02-12T18:56:06.655Z,101503.47
2019-02-12T18:58:37.157Z,101499.81
2019-02-12T19:01:07.614Z,101492.40
2019-02-12T19:03:38.444Z,101494.03
2019-02-12T19:06:09.297Z,101497.78
2019-02-12T19:08:41.267Z,101488.69
2019-02-12T19:11:12.531Z,101481.36
2019-02-12T19:13:45.311Z,101483.38
2019-02-12T19:16:22.173Z,101485.02
2019-02-12T19:18:52.871Z,101487.89
2019-02-12T19:21:24.587Z,101492.88
2019-02-12T19:23:55.428Z,101494.66
2019-02-12T19:26:25.916Z,101494.20
2019-02-12T19:28:56.943Z,101496.94
2019-02-12T19:31:27.753Z,101500.60
2019-02-12T19:33:59.060Z,101496.23
2019-02-12T19:36:30.171Z,101491.81
2019-02-12T19:39:21.069Z,101491.64
2019-02-12T19:41:51.646Z,101497.50
2019-02-12T19:44:23.164Z,101495.39
2019-02-12T19:46:53.836Z,101491.28
2019-02-12T19:49:24.285Z,101497.50
2019-02-12T19:51:54.789Z,101502.94
2019-02-12T19:54:25.594Z,101504.04
2019-02-12T19:56:58.351Z,101499.05
2019-02-12T19:59:28.701Z,101509.95
2019-02-12T20:02:02.477Z,101506.83
2019-02-12T20:04:33.505Z,101506.83
2019-02-12T20:07:04.333Z,101508.55
2019-02-12T20:09:35.146Z,101507.84
2019-02-12T20:12:05.660Z,101507.53
2019-02-12T20:14:37.909Z,101508.72
2019-02-12T20:17:10.506Z,101510.58
2019-02-12T20:19:41.514Z,101517.19
2019-02-12T20:22:13.587Z,101524.52
2019-02-12T20:24:47.186Z,101527.39
2019-02-12T20:27:20.620Z,101529.90
2019-02-12T20:29:51.114Z,101526.38
2019-02-12T20:32:21.590Z,101527.88
2019-02-12T20:34:52.087Z,101532.38
2019-02-12T20:37:25.677Z,101535.12
2019-02-12T20:39:56.130Z,101527.62
2019-02-12T20:42:37.419Z,101529.03
2019-02-12T20:45:09.764Z,101528.41
2019-02-12T20:47:40.631Z,101529.50
2019-02-12T20:50:13.517Z,101526.22
2019-02-12T20:52:44.325Z,101514.08
2019-02-12T20:55:15.100Z,101512.23
2019-02-12T20:57:45.918Z,101513.00
2019-02-12T21:00:18.206Z,101502.81
2019-02-12T21:02:49.450Z,101503.34
2019-02-12T21:05:19.894Z,101506.47
2019-02-12T21:07:50.359Z,101500.78
2019-02-12T21:10:21.427Z,101501.31
2019-02-12T21:12:52.264Z,101506.69
2019-02-12T21:15:23.241Z,101500.30
2019-02-12T21:17:54.044Z,101499.91
2019-02-12T21:20:24.518Z,101496.56
2019-02-12T21:22:55.068Z,101495.55
2019-02-12T21:25:26.696Z,101497.72
2019-02-12T21:27:57.588Z,101502.48
2019-02-12T21:30:28.076Z,101502.78
2019-02-12T21:32:58.876Z,101504.36
2019-02-12T21:35:29.687Z,101515.78
2019-02-12T21:38:00.822Z,101507.69
2019-02-12T21:40:31.300Z,101503.48
2019-02-12T21:43:01.779Z,101508.41
2019-02-12T21:45:34.914Z,101513.43
2019-02-12T21:48:06.164Z,101519.67
2019-02-12T21:50:36.603Z,101519.69
2019-02-12T21:53:07.086Z,101532.45
2019-02-12T21:55:37.534Z,101532.77
2019-02-12T21:58:08.036Z,101541.95
2019-02-12T22:00:38.578Z,101541.17
2019-02-12T22:03:09.024Z,101531.30
2019-02-12T22:05:39.514Z,101529.81
2019-02-12T22:08:09.954Z,101531.37
2019-02-12T22:10:46.206Z,101535.97
2019-02-12T22:13:12.955Z,101529.98
2019-02-12T22:15:43.584Z,101537.29
2019-02-12T22:18:14.069Z,101542.37
2019-02-12T22:20:44.910Z,101540.96
2019-02-12T22:23:15.442Z,101539.70
2019-02-12T22:25:45.890Z,101541.81
2019-02-12T22:28:16.765Z,101530.12
2019-02-12T22:30:47.201Z,101531.05
2019-02-12T22:33:17.991Z,101539.25
2019-02-12T22:35:48.482Z,101535.58
2019-02-12T22:38:18.936Z,101540.27
2019-02-12T22:40:49.378Z,101545.79
2019-02-12T22:43:19.878Z,101542.74
2019-02-12T22:45:50.342Z,101548.66
2019-02-12T22:48:20.840Z,101555.37
2019-02-12T22:50:51.288Z,101559.17
2019-02-12T22:53:22.140Z,101563.85
2019-02-12T22:55:52.780Z,101564.25
2019-02-12T22:58:23.611Z,101561.03
2019-02-12T23:01:08.593Z,101567.28
2019-02-12T23:03:39.457Z,101566.41
2019-02-12T23:06:09.899Z,101566.19
2019-02-12T23:08:41.709Z,101574.05
2019-02-12T23:11:12.154Z,101567.96
2019-02-12T23:13:43.518Z,101564.95
2019-02-12T23:16:14.370Z,101572.25
2019-02-12T23:18:44.952Z,101571.94
2019-02-12T23:21:15.766Z,101574.05
2019-02-12T23:23:46.218Z,101565.80
2019-02-12T23:26:16.738Z,101557.99
2019-02-12T23:28:47.187Z,101560.27
2019-02-12T23:31:17.757Z,101559.79
2019-02-12T23:33:48.383Z,101556.13
2019-02-12T23:36:18.834Z,101548.82
2019-02-12T23:38:49.308Z,101549.60
2019-02-12T23:41:20.094Z,101544.75
2019-02-12T23:43:51.285Z,101542.68
2019-02-12T23:46:22.076Z,101541.41
2019-02-12T23:48:52.515Z,101535.27
2019-02-12T23:51:23.648Z,101535.89
2019-02-12T23:53:54.098Z,101542.05
2019-02-12T23:56:24.587Z,101542.35
2019-02-12T23:58:55.046Z,101547.48
